createdAt,value
2019-05-18T00:02:00.972Z,4.42
2019-05-18T00:04:34.442Z,4.53
2019-05-18T00:07:07.758Z,4.65
2019-05-18T00:09:41.142Z,4.92
2019-05-18T00:12:14.481Z,4.50
2019-05-18T00:14:47.960Z,3.52
2019-05-18T00:17:25.275Z,4.93
2019-05-18T00:19:56.681Z,3.87
2019-05-18T00:22:30.020Z,5.22
2019-05-18T00:25:05.210Z,5.17
2019-05-18T00:27:38.651Z,4.08
2019-05-18T00:30:11.967Z,4.67
2019-05-18T00:32:45.403Z,4.70
2019-05-18T00:35:18.793Z,3.92
2019-05-18T00:37:52.141Z,5.75
2019-05-18T00:40:25.471Z,3.80
2019-05-18T00:42:58.948Z,3.72
2019-05-18T00:45:32.268Z,4.55
2019-05-18T00:48:05.610Z,4.42
2019-05-18T00:50:39.002Z,5.47
2019-05-18T00:53:12.313Z,3.50
2019-05-18T00:55:45.670Z,5.28
2019-05-18T00:58:18.981Z,4.58
2019-05-18T01:00:53.405Z,5.17
2019-05-18T01:03:26.716Z,4.10
2019-05-18T01:06:00.088Z,4.83
2019-05-18T01:08:33.707Z,3.87
2019-05-18T01:11:07.651Z,4.10
2019-05-18T01:13:42.631Z,4.12
2019-05-18T01:16:15.991Z,4.17
2019-05-18T01:18:49.304Z,3.75
2019-05-18T01:21:22.755Z,3.98
2019-05-18T01:23:56.138Z,3.77
2019-05-18T01:26:29.695Z,4.25
2019-05-18T01:29:03.517Z,3.95
2019-05-18T01:31:36.881Z,5.60
2019-05-18T01:34:10.195Z,4.85
2019-05-18T01:36:43.809Z,4.33
2019-05-18T01:39:17.140Z,4.10
2019-05-18T01:41:50.615Z,4.15
2019-05-18T01:44:23.981Z,5.07
2019-05-18T01:46:57.301Z,3.70
2019-05-18T01:49:30.723Z,4.22
2019-05-18T01:52:05.202Z,3.35
2019-05-18T01:54:38.613Z,3.92
2019-05-18T01:57:12.139Z,3.72
2019-05-18T01:59:45.484Z,4.10
2019-05-18T02:02:18.834Z,3.75
2019-05-18T02:04:52.237Z,4.00
2019-05-18T02:07:25.571Z,3.50
2019-05-18T02:09:58.927Z,3.90
2019-05-18T02:12:33.825Z,5.00
2019-05-18T02:15:08.019Z,3.92
2019-05-18T02:17:41.320Z,4.20
2019-05-18T02:20:14.734Z,3.80
2019-05-18T02:22:48.032Z,5.00
2019-05-18T02:25:21.397Z,3.80
2019-05-18T02:27:54.593Z,4.20
2019-05-18T02:30:27.923Z,4.15
2019-05-18T02:33:01.250Z,4.00
2019-05-18T02:35:34.609Z,4.67
2019-05-18T02:38:07.909Z,4.17
2019-05-18T02:40:41.249Z,4.33
2019-05-18T02:43:15.271Z,4.08
2019-05-18T02:45:48.587Z,4.40
2019-05-18T02:48:21.967Z,4.35
2019-05-18T02:50:56.353Z,4.50
2019-05-18T02:53:29.689Z,3.83
2019-05-18T02:56:03.009Z,4.05
2019-05-18T02:58:36.373Z,4.90
2019-05-18T03:01:09.675Z,4.70
2019-05-18T03:03:43.038Z,4.45
2019-05-18T03:06:16.187Z,4.80
2019-05-18T03:08:49.521Z,5.10
2019-05-18T03:11:22.906Z,5.80
2019-05-18T03:13:56.250Z,4.35
2019-05-18T03:16:29.564Z,4.72
2019-05-18T03:19:08.313Z,4.72
2019-05-18T03:21:37.971Z,4.50
2019-05-18T03:24:12.411Z,4.75
2019-05-18T03:26:45.727Z,4.72
2019-05-18T03:29:19.062Z,4.67
2019-05-18T03:31:52.383Z,4.53
2019-05-18T03:34:25.760Z,5.95
2019-05-18T03:36:59.073Z,4.37
2019-05-18T03:39:32.410Z,4.30
2019-05-18T03:42:05.731Z,5.22
2019-05-18T03:44:39.103Z,5.28
2019-05-18T03:47:12.474Z,4.58
2019-05-18T03:49:46.986Z,4.47
2019-05-18T03:52:20.286Z,3.62
2019-05-18T03:54:53.631Z,3.98
2019-05-18T03:57:26.927Z,4.90
2019-05-18T04:00:00.296Z,3.65
2019-05-18T04:02:33.594Z,4.03
2019-05-18T04:05:07.186Z,3.37
2019-05-18T04:07:40.514Z,3.90
2019-05-18T04:10:13.875Z,4.80
2019-05-18T04:12:47.270Z,5.30
2019-05-18T04:15:20.660Z,4.72
2019-05-18T04:17:53.961Z,4.33
2019-05-18T04:20:27.382Z,3.52
2019-05-18T04:23:00.689Z,3.15
2019-05-18T04:25:34.044Z,3.30
2019-05-18T04:28:07.401Z,3.55
2019-05-18T04:30:40.756Z,3.45
2019-05-18T04:33:14.118Z,4.87
2019-05-18T04:35:47.503Z,3.95
2019-05-18T04:38:20.826Z,3.37
2019-05-18T04:40:54.195Z,3.98
2019-05-18T04:43:27.518Z,4.83
2019-05-18T04:46:01.523Z,7.10
2019-05-18T04:48:34.847Z,5.00
2019-05-18T04:51:10.226Z,4.17
2019-05-18T04:53:43.607Z,4.30
2019-05-18T04:56:16.969Z,3.80
2019-05-18T04:58:50.639Z,4.50
2019-05-18T05:01:24.082Z,3.05
2019-05-18T05:03:57.468Z,4.78
2019-05-18T05:06:30.839Z,3.87
2019-05-18T05:09:06.389Z,5.37
2019-05-18T05:11:39.989Z,4.35
2019-05-18T05:14:14.378Z,3.85
2019-05-18T05:16:47.734Z,4.50
2019-05-18T05:19:21.039Z,5.10
2019-05-18T05:21:54.410Z,4.35
2019-05-18T05:24:27.914Z,4.17
2019-05-18T05:27:02.820Z,5.17
2019-05-18T05:29:36.274Z,5.30
2019-05-18T05:32:09.819Z,5.10
2019-05-18T05:34:43.553Z,4.72
2019-05-18T05:37:16.873Z,3.45
2019-05-18T05:39:50.281Z,5.58
2019-05-18T05:42:23.637Z,4.05
2019-05-18T05:44:56.993Z,5.45
2019-05-18T05:47:30.626Z,4.95
2019-05-18T05:50:07.519Z,4.37
2019-05-18T05:52:42.120Z,5.53
2019-05-18T05:55:15.510Z,3.95
2019-05-18T05:57:48.830Z,4.42
2019-05-18T06:00:22.201Z,4.45
2019-05-18T06:02:55.517Z,4.53
2019-05-18T06:05:28.879Z,6.28
2019-05-18T06:08:02.185Z,4.83
2019-05-18T06:10:35.564Z,4.42
2019-05-18T06:13:08.888Z,5.30
2019-05-18T06:15:43.041Z,4.70
2019-05-18T06:18:17.399Z,4.45
2019-05-18T06:20:51.952Z,5.22
2019-05-18T06:23:25.708Z,5.15
2019-05-18T06:25:59.152Z,6.58
2019-05-18T06:28:32.545Z,7.62
2019-05-18T06:31:05.897Z,5.72
2019-05-18T06:33:39.340Z,7.30
2019-05-18T06:36:12.663Z,6.20
2019-05-18T06:38:46.430Z,6.10
2019-05-18T06:41:20.402Z,4.75
2019-05-18T06:43:53.764Z,6.58
2019-05-18T06:46:27.317Z,5.53
2019-05-18T06:49:00.657Z,5.95
2019-05-18T06:51:34.042Z,4.28
2019-05-18T06:54:07.530Z,5.35
2019-05-18T06:56:40.840Z,5.30
2019-05-18T06:59:16.448Z,5.33
2019-05-18T07:01:49.907Z,5.17
2019-05-18T07:04:23.465Z,4.92
2019-05-18T07:06:56.795Z,5.15
2019-05-18T07:09:30.114Z,6.20
2019-05-18T07:12:03.751Z,5.80
2019-05-18T07:14:37.091Z,5.08
2019-05-18T07:17:10.437Z,3.70
2019-05-18T07:19:43.798Z,6.05
2019-05-18T07:22:17.172Z,4.20
2019-05-18T07:24:50.483Z,5.33
2019-05-18T07:27:23.849Z,4.10
2019-05-18T07:29:57.255Z,4.33
2019-05-18T07:32:30.673Z,4.20
2019-05-18T07:35:04.370Z,9.50
2019-05-18T07:37:37.743Z,10.05
2019-05-18T07:40:11.449Z,10.40
2019-05-18T07:42:44.861Z,7.87
2019-05-18T07:45:18.257Z,7.53
2019-05-18T07:47:51.596Z,9.60
2019-05-18T07:50:26.053Z,15.25
2019-05-18T07:52:59.397Z,10.40
2019-05-18T07:55:32.746Z,9.88
2019-05-18T07:58:06.060Z,7.35
2019-05-18T08:00:39.755Z,7.62
2019-05-18T08:03:13.130Z,9.15
2019-05-18T08:05:46.460Z,9.18
2019-05-18T08:08:19.783Z,8.63
2019-05-18T08:10:53.238Z,7.80
2019-05-18T08:13:26.563Z,10.88
2019-05-18T08:15:59.903Z,10.23
2019-05-18T08:18:33.269Z,8.15
2019-05-18T08:21:06.746Z,8.55
2019-05-18T08:23:40.138Z,6.28
2019-05-18T08:26:13.553Z,8.20
2019-05-18T08:28:46.925Z,7.28
2019-05-18T08:31:20.239Z,7.37
2019-05-18T08:33:54.867Z,6.78
2019-05-18T08:36:28.754Z,4.20
2019-05-18T08:39:02.536Z,8.73
2019-05-18T08:41:36.118Z,5.78
2019-05-18T08:44:09.435Z,4.65
2019-05-18T08:46:42.804Z,8.15
2019-05-18T08:49:16.331Z,6.15
2019-05-18T08:51:49.766Z,5.45
2019-05-18T08:54:23.077Z,7.00
2019-05-18T08:56:56.431Z,6.47
2019-05-18T08:59:29.793Z,8.17
2019-05-18T09:02:03.151Z,6.78
2019-05-18T09:04:36.513Z,5.75
2019-05-18T09:07:09.902Z,6.53
2019-05-18T09:09:43.275Z,6.58
2019-05-18T09:12:16.606Z,8.45
2019-05-18T09:14:50.122Z,7.12
2019-05-18T09:17:23.499Z,7.22
2019-05-18T09:19:56.810Z,6.70
2019-05-18T09:22:30.149Z,5.70
2019-05-18T09:25:07.047Z,5.72
2019-05-18T09:27:40.398Z,5.05
2019-05-18T09:30:13.861Z,5.85
2019-05-18T09:32:47.179Z,6.12
2019-05-18T09:35:21.763Z,6.08
2019-05-18T09:37:55.143Z,5.03
2019-05-18T09:40:30.129Z,4.62
2019-05-18T09:43:03.486Z,3.80
2019-05-18T09:45:36.790Z,4.08
2019-05-18T09:48:10.208Z,5.25
2019-05-18T09:50:45.119Z,5.80
2019-05-18T09:53:19.546Z,8.75
2019-05-18T09:55:52.864Z,10.32
2019-05-18T09:58:26.205Z,9.08
2019-05-18T10:00:59.526Z,11.80
2019-05-18T10:03:32.921Z,9.03
2019-05-18T10:06:06.269Z,7.12
2019-05-18T10:08:40.173Z,6.85
2019-05-18T10:11:13.541Z,6.60
2019-05-18T10:13:46.939Z,11.53
2019-05-18T10:16:20.287Z,7.37
2019-05-18T10:18:54.677Z,7.83
2019-05-18T10:21:28.108Z,8.28
2019-05-18T10:24:01.421Z,7.67
2019-05-18T10:26:34.773Z,6.20
2019-05-18T10:29:08.106Z,5.15
2019-05-18T10:31:41.436Z,7.00
2019-05-18T10:34:15.006Z,5.47
2019-05-18T10:36:48.390Z,5.03
2019-05-18T10:39:21.709Z,4.10
2019-05-18T10:41:55.068Z,8.93
2019-05-18T10:44:28.584Z,4.95
2019-05-18T10:47:01.967Z,4.80
2019-05-18T10:49:35.297Z,4.45
2019-05-18T10:52:09.731Z,3.30
2019-05-18T10:54:43.078Z,4.30
2019-05-18T10:57:16.394Z,5.12
2019-05-18T10:59:49.998Z,3.77
2019-05-18T11:02:23.312Z,5.67
2019-05-18T11:04:57.373Z,3.20
2019-05-18T11:07:30.693Z,3.72
2019-05-18T11:10:06.170Z,4.47
2019-05-18T11:12:39.468Z,5.37
2019-05-18T11:15:12.821Z,3.40
2019-05-18T11:17:46.421Z,5.72
2019-05-18T11:20:19.827Z,3.08
2019-05-18T11:22:53.168Z,3.20
2019-05-18T11:25:26.490Z,6.53
2019-05-18T11:28:00.343Z,2.98
2019-05-18T11:30:33.699Z,2.80
2019-05-18T11:33:07.037Z,2.95
2019-05-18T11:35:40.485Z,3.02
2019-05-18T11:38:13.927Z,2.47
2019-05-18T11:40:47.283Z,3.27
2019-05-18T11:43:20.606Z,3.90
2019-05-18T11:45:53.969Z,3.50
2019-05-18T11:48:27.271Z,4.30
2019-05-18T11:51:00.648Z,16.15
2019-05-18T11:53:34.005Z,22.52
2019-05-18T11:56:07.315Z,8.40
2019-05-18T11:58:40.647Z,12.68
2019-05-18T12:01:13.970Z,8.58
2019-05-18T12:03:47.331Z,14.20
2019-05-18T12:06:21.708Z,7.35
2019-05-18T12:08:58.492Z,10.48
2019-05-18T12:11:30.058Z,8.93
2019-05-18T12:14:03.453Z,7.53
2019-05-18T12:16:36.871Z,8.23
2019-05-18T12:19:10.204Z,9.90
2019-05-18T12:21:43.608Z,7.25
2019-05-18T12:24:17.109Z,8.90
2019-05-18T12:26:50.457Z,10.58
2019-05-18T12:29:23.796Z,10.58
2019-05-18T12:31:57.428Z,7.72
2019-05-18T12:34:30.787Z,10.23
2019-05-18T12:37:04.119Z,9.23
2019-05-18T12:39:37.623Z,8.95
2019-05-18T12:42:11.178Z,9.38
2019-05-18T12:44:44.562Z,9.85
2019-05-18T12:47:17.861Z,7.30
2019-05-18T12:49:51.225Z,7.45
2019-05-18T12:52:25.269Z,7.08
2019-05-18T12:54:58.971Z,7.35
2019-05-18T12:57:32.302Z,8.68
2019-05-18T13:00:07.884Z,8.33
2019-05-18T13:02:41.284Z,6.45
2019-05-18T13:05:14.813Z,10.43
2019-05-18T13:07:48.153Z,6.65
2019-05-18T13:10:21.519Z,7.40
2019-05-18T13:12:54.841Z,6.75
2019-05-18T13:15:28.280Z,9.00
2019-05-18T13:18:01.704Z,7.75
2019-05-18T13:20:35.109Z,6.55
2019-05-18T13:23:08.489Z,9.37
2019-05-18T13:25:42.630Z,6.85
2019-05-18T13:28:16.529Z,7.10
2019-05-18T13:30:49.910Z,6.72
2019-05-18T13:33:23.224Z,5.62
2019-05-18T13:35:56.766Z,5.28
2019-05-18T13:38:30.112Z,5.17
2019-05-18T13:41:03.633Z,5.25
2019-05-18T13:43:38.015Z,7.62
2019-05-18T13:46:11.376Z,7.95
2019-05-18T13:48:44.977Z,4.72
2019-05-18T13:51:18.407Z,4.05
2019-05-18T13:53:53.351Z,4.20
2019-05-18T13:56:26.689Z,3.15
2019-05-18T13:59:00.039Z,4.22
2019-05-18T14:01:33.540Z,6.60
2019-05-18T14:04:07.134Z,5.17
2019-05-18T14:06:40.445Z,6.25
2019-05-18T14:09:13.836Z,5.03
2019-05-18T14:11:47.112Z,4.58
2019-05-18T14:14:20.452Z,4.75
2019-05-18T14:16:53.822Z,4.37
2019-05-18T14:19:27.198Z,4.37
2019-05-18T14:22:00.513Z,4.33
2019-05-18T14:24:33.856Z,4.42
2019-05-18T14:27:07.166Z,4.35
2019-05-18T14:29:40.517Z,3.12
2019-05-18T14:32:13.925Z,4.45
2019-05-18T14:34:47.271Z,5.20
2019-05-18T14:37:20.578Z,2.92
2019-05-18T14:39:54.074Z,2.98
2019-05-18T14:42:27.411Z,4.30
2019-05-18T14:45:00.799Z,4.03
2019-05-18T14:47:34.995Z,4.05
2019-05-18T14:50:09.397Z,2.92
2019-05-18T14:52:42.801Z,3.10
2019-05-18T14:55:16.159Z,4.12
2019-05-18T14:57:49.461Z,3.80
2019-05-18T15:00:22.886Z,13.22
2019-05-18T15:02:56.213Z,14.15
2019-05-18T15:05:29.598Z,6.22
2019-05-18T15:08:02.940Z,9.05
2019-05-18T15:10:36.331Z,15.38
2019-05-18T15:13:09.768Z,12.93
2019-05-18T15:15:43.137Z,14.68
2019-05-18T15:18:16.496Z,12.43
2019-05-18T15:20:49.844Z,9.50
2019-05-18T15:23:23.186Z,13.80
2019-05-18T15:25:56.534Z,10.78
2019-05-18T15:28:30.153Z,15.68
2019-05-18T15:31:03.589Z,13.55
2019-05-18T15:33:36.966Z,10.50
2019-05-18T15:36:11.514Z,11.40
2019-05-18T15:38:45.140Z,10.60
2019-05-18T15:41:18.499Z,9.30
2019-05-18T15:43:51.890Z,9.20
2019-05-18T15:46:25.379Z,10.18
2019-05-18T15:48:58.861Z,12.58
2019-05-18T15:51:32.492Z,12.37
2019-05-18T15:54:05.841Z,12.47
2019-05-18T15:56:39.429Z,13.25
2019-05-18T15:59:12.841Z,13.35
2019-05-18T16:01:46.224Z,17.70
2019-05-18T16:04:20.282Z,18.10
2019-05-18T16:06:53.874Z,16.48
2019-05-18T16:09:27.277Z,16.37
2019-05-18T16:12:00.619Z,18.35
2019-05-18T16:14:34.018Z,18.55
2019-05-18T16:17:07.381Z,26.37
2019-05-18T16:19:40.767Z,22.75
2019-05-18T16:22:14.180Z,20.02
2019-05-18T16:24:47.522Z,29.07
2019-05-18T16:27:22.526Z,21.23
2019-05-18T16:29:56.041Z,21.87
2019-05-18T16:32:29.613Z,21.73
2019-05-18T16:35:05.818Z,19.07
2019-05-18T16:37:39.168Z,23.87
2019-05-18T16:40:13.786Z,20.48
2019-05-18T16:42:47.305Z,22.58
2019-05-18T16:45:20.695Z,27.20
2019-05-18T16:47:54.133Z,19.52
2019-05-18T16:50:27.602Z,26.02
2019-05-18T16:53:01.070Z,23.38
2019-05-18T16:55:34.435Z,21.80
2019-05-18T16:58:07.751Z,29.90
2019-05-18T17:00:41.228Z,32.28
2019-05-18T17:03:14.623Z,25.20
2019-05-18T17:05:48.175Z,21.57
2019-05-18T17:08:22.389Z,23.18
2019-05-18T17:10:55.752Z,18.53
2019-05-18T17:13:29.072Z,17.27
2019-05-18T17:16:04.030Z,14.15
2019-05-18T17:18:37.382Z,17.87
2019-05-18T17:21:10.970Z,13.68
2019-05-18T17:23:44.309Z,14.20
2019-05-18T17:26:17.943Z,12.93
2019-05-18T17:28:51.283Z,12.13
2019-05-18T17:31:24.620Z,14.20
2019-05-18T17:33:57.947Z,9.38
2019-05-18T17:36:31.474Z,13.00
2019-05-18T17:39:05.739Z,15.08
2019-05-18T17:41:39.122Z,12.35
2019-05-18T17:44:12.671Z,10.03
2019-05-18T17:46:46.069Z,8.78
2019-05-18T17:49:26.854Z,10.30
2019-05-18T17:51:54.484Z,9.60
2019-05-18T17:54:27.795Z,10.13
2019-05-18T17:57:08.336Z,10.65
2019-05-18T17:59:36.178Z,8.63
2019-05-18T18:02:09.542Z,9.35
2019-05-18T18:04:44.455Z,7.55
2019-05-18T18:07:17.799Z,10.90
2019-05-18T18:09:51.128Z,7.55
2019-05-18T18:12:24.554Z,7.90
2019-05-18T18:14:57.931Z,8.60
2019-05-18T18:17:32.334Z,15.95
2019-05-18T18:20:06.060Z,21.00
2019-05-18T18:22:39.447Z,25.82
2019-05-18T18:25:12.756Z,26.97
2019-05-18T18:27:46.132Z,31.80
2019-05-18T18:30:19.668Z,28.70
2019-05-18T18:32:53.039Z,37.63
2019-05-18T18:35:26.378Z,32.55
2019-05-18T18:37:59.850Z,35.17
2019-05-18T18:40:34.528Z,34.10
2019-05-18T18:43:08.608Z,33.02
2019-05-18T18:45:44.345Z,40.12
2019-05-18T18:48:17.929Z,35.05
2019-05-18T18:50:51.290Z,35.40
2019-05-18T18:53:24.598Z,36.73
2019-05-18T18:55:58.010Z,45.45
2019-05-18T18:58:31.567Z,39.03
2019-05-18T19:01:04.916Z,36.77
2019-05-18T19:03:38.428Z,39.35
2019-05-18T19:06:11.907Z,38.13
2019-05-18T19:08:45.348Z,35.83
2019-05-18T19:11:18.918Z,31.07
2019-05-18T19:13:52.271Z,31.90
2019-05-18T19:16:25.643Z,29.48
2019-05-18T19:18:58.988Z,23.98
2019-05-18T19:21:32.587Z,23.22
2019-05-18T19:24:05.920Z,22.35
2019-05-18T19:26:39.384Z,18.80
2019-05-18T19:29:12.717Z,17.92
2019-05-18T19:31:46.094Z,22.48
2019-05-18T19:34:19.434Z,18.82
2019-05-18T19:36:52.781Z,26.33
2019-05-18T19:39:26.129Z,22.15
2019-05-18T19:41:59.577Z,25.60
2019-05-18T19:44:32.972Z,22.22
2019-05-18T19:47:06.648Z,28.00
2019-05-18T19:49:40.431Z,30.02
2019-05-18T19:52:14.998Z,39.23
2019-05-18T19:54:48.337Z,34.88
2019-05-18T19:57:21.844Z,37.50
2019-05-18T19:59:55.198Z,35.35
2019-05-18T20:02:28.548Z,36.13
2019-05-18T20:05:08.031Z,34.78
2019-05-18T20:07:36.935Z,28.50
2019-05-18T20:10:11.547Z,27.07
2019-05-18T20:12:45.882Z,26.45
2019-05-18T20:15:19.196Z,25.15
2019-05-18T20:17:52.553Z,24.75
2019-05-18T20:20:26.068Z,24.10
2019-05-18T20:23:00.984Z,20.68
2019-05-18T20:25:34.353Z,25.10
2019-05-18T20:28:07.754Z,19.87
2019-05-18T20:30:41.163Z,20.65
2019-05-18T20:33:14.496Z,18.85
2019-05-18T20:35:48.167Z,18.35
2019-05-18T20:38:21.490Z,22.32
2019-05-18T20:40:54.817Z,17.62
2019-05-18T20:43:28.264Z,17.67
2019-05-18T20:46:01.627Z,16.07
2019-05-18T20:48:35.745Z,15.50
2019-05-18T20:51:09.152Z,17.77
2019-05-18T20:53:42.541Z,15.28
2019-05-18T20:56:15.890Z,16.50
2019-05-18T20:58:49.472Z,19.73
2019-05-18T21:01:23.639Z,16.75
2019-05-18T21:03:56.960Z,15.08
2019-05-18T21:06:30.320Z,14.90
2019-05-18T21:09:04.514Z,17.02
2019-05-18T21:11:39.037Z,18.82
2019-05-18T21:14:12.387Z,16.97
2019-05-18T21:16:45.725Z,15.28
2019-05-18T21:19:19.329Z,19.20
2019-05-18T21:21:52.667Z,14.85
2019-05-18T21:24:26.188Z,16.95
2019-05-18T21:26:59.500Z,15.83
2019-05-18T21:29:32.834Z,15.35
2019-05-18T21:32:06.157Z,17.73
2019-05-18T21:34:39.518Z,14.33
2019-05-18T21:37:12.875Z,15.35
2019-05-18T21:39:46.223Z,15.05
2019-05-18T21:42:19.525Z,16.60
2019-05-18T21:44:52.887Z,13.98
2019-05-18T21:47:26.206Z,15.30
2019-05-18T21:49:59.572Z,64.95
2019-05-18T21:52:32.883Z,146.32
2019-05-18T21:55:06.226Z,89.10
2019-05-18T21:57:39.543Z,72.12
2019-05-18T22:00:12.950Z,64.50
2019-05-18T22:02:47.893Z,61.05
2019-05-18T22:05:21.268Z,69.53
2019-05-18T22:07:54.658Z,54.40
2019-05-18T22:10:28.022Z,47.90
2019-05-18T22:13:01.345Z,53.85
2019-05-18T22:15:34.735Z,44.83
2019-05-18T22:18:22.193Z,51.98
2019-05-18T22:20:44.429Z,53.00
2019-05-18T22:23:17.930Z,36.95
2019-05-18T22:25:51.647Z,47.88
2019-05-18T22:28:24.980Z,43.00
2019-05-18T22:30:58.341Z,44.23
2019-05-18T22:33:31.659Z,35.13
2019-05-18T22:36:05.037Z,36.93
2019-05-18T22:38:38.375Z,40.70
2019-05-18T22:41:11.751Z,41.25
2019-05-18T22:43:45.085Z,34.55
2019-05-18T22:46:18.420Z,28.17
2019-05-18T22:48:51.854Z,31.87
2019-05-18T22:51:25.220Z,30.77
2019-05-18T22:53:58.547Z,33.58
2019-05-18T22:56:31.929Z,31.87
2019-05-18T22:59:06.729Z,26.73
2019-05-18T23:01:40.097Z,23.55
2019-05-18T23:04:13.524Z,27.10
2019-05-18T23:06:46.864Z,25.37
2019-05-18T23:09:20.256Z,23.42
2019-05-18T23:11:53.610Z,17.07
2019-05-18T23:14:26.915Z,19.52
2019-05-18T23:17:00.247Z,20.80
2019-05-18T23:19:33.566Z,22.77
2019-05-18T23:22:06.916Z,23.42
2019-05-18T23:24:40.236Z,26.90
2019-05-18T23:27:13.578Z,21.33
2019-05-18T23:29:46.942Z,18.32
2019-05-18T23:32:20.283Z,21.65
2019-05-18T23:34:53.596Z,20.92
2019-05-18T23:37:26.947Z,24.10
2019-05-18T23:40:00.495Z,21.30
2019-05-18T23:42:33.834Z,19.40
2019-05-18T23:45:07.192Z,14.63
2019-05-18T23:47:40.542Z,15.80
2019-05-18T23:50:13.868Z,16.13
2019-05-18T23:52:47.237Z,16.02
2019-05-18T23:55:20.546Z,19.32
2019-05-18T23:57:53.885Z,14.07
